createdAt,value
2018-09-28T00:00:25.848Z,1015.86
2018-09-28T00:01:25.835Z,1015.87
2018-09-28T00:02:25.866Z,1015.88
2018-09-28T00:03:25.805Z,1015.88
2018-09-28T00:04:25.796Z,1015.89
2018-09-28T00:05:25.791Z,1015.88
2018-09-28T00:06:25.785Z,1015.89
2018-09-28T00:07:25.814Z,1015.87
2018-09-28T00:08:25.765Z,1015.86
2018-09-28T00:09:25.743Z,1015.79
2018-09-28T00:10:25.734Z,1015.80
2018-09-28T00:11:25.748Z,1015.77
2018-09-28T00:12:25.709Z,1015.79
2018-09-28T00:13:25.722Z,1015.81
2018-09-28T00:14:25.687Z,1015.74
2018-09-28T00:15:25.688Z,1015.76
2018-09-28T00:16:25.663Z,1015.74
2018-09-28T00:17:25.654Z,1015.72
2018-09-28T00:18:25.682Z,1015.70
2018-09-28T00:19:25.635Z,1015.68
2018-09-28T00:20:25.662Z,1015.70
2018-09-28T00:21:25.610Z,1015.74
2018-09-28T00:22:25.599Z,1015.73
2018-09-28T00:23:25.614Z,1015.71
2018-09-28T00:24:25.579Z,1015.73
2018-09-28T00:25:25.566Z,1015.67
2018-09-28T00:26:25.614Z,1015.71
2018-09-28T00:27:25.545Z,1015.71
2018-09-28T00:28:25.580Z,1015.69
2018-09-28T00:29:25.540Z,1015.65
2018-09-28T00:30:25.515Z,1015.64
2018-09-28T00:31:25.500Z,1015.65
2018-09-28T00:32:25.491Z,1015.63
2018-09-28T00:33:25.480Z,1015.67
2018-09-28T00:34:25.491Z,1015.68
2018-09-28T00:35:25.469Z,1015.66
2018-09-28T00:36:25.447Z,1015.68
2018-09-28T00:37:25.442Z,1015.68
2018-09-28T00:38:25.470Z,1015.66
2018-09-28T00:39:25.447Z,1015.68
2018-09-28T00:40:25.402Z,1015.69
2018-09-28T00:41:25.413Z,1015.68
2018-09-28T00:42:25.381Z,1015.67
2018-09-28T00:43:25.373Z,1015.64
2018-09-28T00:44:25.397Z,1015.64
2018-09-28T00:45:25.365Z,1015.69
2018-09-28T00:46:25.349Z,1015.66
2018-09-28T00:47:25.328Z,1015.64
2018-09-28T00:48:25.317Z,1015.64
2018-09-28T00:49:25.318Z,1015.67
2018-09-28T00:50:25.319Z,1015.63
2018-09-28T00:51:25.281Z,1015.64
2018-09-28T00:52:25.272Z,1015.63
2018-09-28T00:53:25.260Z,1015.62
2018-09-28T00:54:25.267Z,1015.63
2018-09-28T00:55:25.275Z,1015.67
2018-09-28T00:56:25.230Z,1015.68
2018-09-28T00:57:25.233Z,1015.68
2018-09-28T00:58:25.208Z,1015.71
2018-09-28T00:59:25.199Z,1015.72
2018-09-28T01:00:25.240Z,1015.66
2018-09-28T01:01:25.176Z,1015.69
2018-09-28T01:02:25.190Z,1015.64
2018-09-28T01:03:25.155Z,1015.68
2018-09-28T01:04:25.142Z,1015.69
2018-09-28T01:05:25.171Z,1015.66
2018-09-28T01:06:25.143Z,1015.65
2018-09-28T01:07:25.120Z,1015.69
2018-09-28T01:08:25.100Z,1015.69
2018-09-28T01:09:25.087Z,1015.64
2018-09-28T01:10:25.088Z,1015.65
2018-09-28T01:11:25.098Z,1015.63
2018-09-28T01:12:25.063Z,1015.60
2018-09-28T01:13:25.045Z,1015.54
2018-09-28T01:14:25.032Z,1015.56
2018-09-28T01:15:25.025Z,1015.55
2018-09-28T01:16:25.033Z,1015.54
2018-09-28T01:17:25.015Z,1015.57
2018-09-28T01:18:24.998Z,1015.54
2018-09-28T01:19:24.981Z,1015.51
2018-09-28T01:20:24.969Z,1015.52
2018-09-28T01:21:24.987Z,1015.50
2018-09-28T01:22:24.978Z,1015.48
2018-09-28T01:23:24.935Z,1015.51
2018-09-28T01:24:24.925Z,1015.53
2018-09-28T01:25:24.925Z,1015.56
2018-09-28T01:26:24.904Z,1015.58
2018-09-28T01:27:24.941Z,1015.58
2018-09-28T01:28:24.881Z,1015.67
2018-09-28T01:29:24.870Z,1015.56
2018-09-28T01:30:24.859Z,1015.52
2018-09-28T01:31:24.866Z,1015.56
2018-09-28T01:32:24.869Z,1015.51
2018-09-28T01:33:24.826Z,1015.54
2018-09-28T01:34:24.819Z,1015.62
2018-09-28T01:35:24.805Z,1015.59
2018-09-28T01:36:24.805Z,1015.57
2018-09-28T01:37:24.809Z,1015.59
2018-09-28T01:38:24.775Z,1015.58
2018-09-28T01:39:24.769Z,1015.57
2018-09-28T01:40:24.769Z,1015.58
2018-09-28T01:41:24.745Z,1015.54
2018-09-28T01:42:24.764Z,1015.54
2018-09-28T01:43:24.718Z,1015.56
2018-09-28T01:44:24.707Z,1015.59
2018-09-28T01:45:24.697Z,1015.57
2018-09-28T01:46:24.702Z,1015.60
2018-09-28T01:47:24.672Z,1015.57
2018-09-28T01:48:24.687Z,1015.60
2018-09-28T01:49:24.696Z,1015.57
2018-09-28T01:50:24.663Z,1015.59
2018-09-28T01:51:24.631Z,1015.59
2018-09-28T01:52:24.629Z,1015.61
2018-09-28T01:53:24.650Z,1015.60
2018-09-28T01:54:24.597Z,1015.60
2018-09-28T01:55:24.589Z,1015.61
2018-09-28T01:56:24.578Z,1015.58
2018-09-28T01:57:24.563Z,1015.54
2018-09-28T01:58:24.646Z,1015.56
2018-09-28T01:59:24.551Z,1015.52
2018-09-28T02:00:24.538Z,1015.51
2018-09-28T02:01:24.532Z,1015.53
2018-09-28T02:02:24.509Z,1015.50
2018-09-28T02:03:24.502Z,1015.49
2018-09-28T02:04:24.524Z,1015.47
2018-09-28T02:05:24.478Z,1015.47
2018-09-28T02:06:24.472Z,1015.48
2018-09-28T02:07:24.486Z,1015.46
2018-09-28T02:08:24.444Z,1015.46
2018-09-28T02:09:24.459Z,1015.51
2018-09-28T02:10:24.422Z,1015.50
2018-09-28T02:11:24.456Z,1015.54
2018-09-28T02:12:24.432Z,1015.49
2018-09-28T02:13:24.392Z,1015.49
2018-09-28T02:14:24.413Z,1015.49
2018-09-28T02:15:24.411Z,1015.50
2018-09-28T02:16:24.369Z,1015.50
2018-09-28T02:17:24.354Z,1015.50
2018-09-28T02:18:24.360Z,1015.52
2018-09-28T02:19:24.339Z,1015.47
2018-09-28T02:20:24.337Z,1015.53
2018-09-28T02:21:24.310Z,1015.52
2018-09-28T02:22:24.308Z,1015.49
2018-09-28T02:23:24.295Z,1015.45
2018-09-28T02:24:24.269Z,1015.45
2018-09-28T02:25:24.304Z,1015.48
2018-09-28T02:26:24.249Z,1015.42
2018-09-28T02:27:24.237Z,1015.46
2018-09-28T02:28:24.229Z,1015.46
2018-09-28T02:29:24.218Z,1015.50
2018-09-28T02:30:24.235Z,1015.52
2018-09-28T02:31:24.212Z,1015.50
2018-09-28T02:32:24.183Z,1015.47
2018-09-28T02:33:24.178Z,1015.49
2018-09-28T02:34:24.164Z,1015.46
2018-09-28T02:35:24.179Z,1015.49
2018-09-28T02:36:24.139Z,1015.54
2018-09-28T02:37:24.137Z,1015.51
2018-09-28T02:38:24.125Z,1015.47
2018-09-28T02:39:24.109Z,1015.45
2018-09-28T02:40:24.124Z,1015.42
2018-09-28T02:41:24.087Z,1015.42
2018-09-28T02:42:24.076Z,1015.44
2018-09-28T02:43:24.083Z,1015.46
2018-09-28T02:44:24.055Z,1015.42
2018-09-28T02:45:24.083Z,1015.41
2018-09-28T02:46:24.036Z,1015.35
2018-09-28T02:47:24.030Z,1015.32
2018-09-28T02:48:24.009Z,1015.31
2018-09-28T02:49:24.006Z,1015.30
2018-09-28T02:50:24.021Z,1015.30
2018-09-28T02:51:23.996Z,1015.32
2018-09-28T02:52:23.979Z,1015.35
2018-09-28T02:53:23.962Z,1015.33
2018-09-28T02:54:23.953Z,1015.29
2018-09-28T02:55:23.933Z,1015.28
2018-09-28T02:56:23.953Z,1015.27
2018-09-28T02:57:23.913Z,1015.32
2018-09-28T02:58:23.901Z,1015.29
2018-09-28T02:59:23.898Z,1015.26
2018-09-28T03:00:23.880Z,1015.32
2018-09-28T03:01:23.894Z,1015.30
2018-09-28T03:02:23.864Z,1015.35
2018-09-28T03:03:23.853Z,1015.30
2018-09-28T03:04:23.848Z,1015.30
2018-09-28T03:05:23.824Z,1015.28
2018-09-28T03:06:23.944Z,1015.27
2018-09-28T03:07:23.819Z,1015.34
2018-09-28T03:08:23.793Z,1015.32
2018-09-28T03:09:23.786Z,1015.31
2018-09-28T03:10:23.803Z,1015.30
2018-09-28T03:11:24.610Z,1015.30
2018-09-28T03:12:23.758Z,1015.26
2018-09-28T03:13:23.742Z,1015.25
2018-09-28T03:14:23.734Z,1015.30
2018-09-28T03:15:23.725Z,1015.29
2018-09-28T03:16:23.728Z,1015.31
2018-09-28T03:17:23.775Z,1015.25
2018-09-28T03:18:23.685Z,1015.28
2018-09-28T03:19:23.680Z,1015.27
2018-09-28T03:20:23.672Z,1015.31
2018-09-28T03:21:23.655Z,1015.32
2018-09-28T03:22:23.743Z,1015.31
2018-09-28T03:23:23.635Z,1015.25
2018-09-28T03:24:23.622Z,1015.25
2018-09-28T03:25:23.621Z,1015.27
2018-09-28T03:26:23.603Z,1015.26
2018-09-28T03:27:23.749Z,1015.29
2018-09-28T03:28:23.576Z,1015.33
2018-09-28T03:29:23.569Z,1015.36
2018-09-28T03:30:23.555Z,1015.38
2018-09-28T03:31:23.567Z,1015.40
2018-09-28T03:32:23.575Z,1015.41
2018-09-28T03:33:23.526Z,1015.41
2018-09-28T03:34:23.513Z,1015.42
2018-09-28T03:35:23.503Z,1015.41
2018-09-28T03:36:23.491Z,1015.45
2018-09-28T03:37:23.518Z,1015.48
2018-09-28T03:38:23.469Z,1015.48
2018-09-28T03:39:23.458Z,1015.52
2018-09-28T03:40:23.462Z,1015.48
2018-09-28T03:41:23.437Z,1015.50
2018-09-28T03:42:23.453Z,1015.47
2018-09-28T03:43:23.430Z,1015.48
2018-09-28T03:44:23.410Z,1015.48
2018-09-28T03:45:23.417Z,1015.50
2018-09-28T03:46:23.382Z,1015.47
2018-09-28T03:47:23.402Z,1015.46
2018-09-28T03:48:23.363Z,1015.44
2018-09-28T03:49:23.351Z,1015.56
2018-09-28T03:50:23.344Z,1015.58
2018-09-28T03:51:23.337Z,1015.53
2018-09-28T03:52:23.351Z,1015.53
2018-09-28T03:53:23.311Z,1015.51
2018-09-28T03:54:23.297Z,1015.50
2018-09-28T03:55:23.286Z,1015.47
2018-09-28T03:56:23.282Z,1015.53
2018-09-28T03:57:23.294Z,1015.52
2018-09-28T03:58:23.269Z,1015.53
2018-09-28T03:59:23.247Z,1015.51
2018-09-28T04:00:23.260Z,1015.49
2018-09-28T04:01:23.220Z,1015.50
2018-09-28T04:02:23.241Z,1015.49
2018-09-28T04:03:23.199Z,1015.49
2018-09-28T04:04:23.187Z,1015.49
2018-09-28T04:05:23.182Z,1015.50
2018-09-28T04:06:23.189Z,1015.51
2018-09-28T04:07:23.186Z,1015.54
2018-09-28T04:08:23.149Z,1015.56
2018-09-28T04:09:23.134Z,1015.56
2018-09-28T04:10:23.129Z,1015.55
2018-09-28T04:11:23.113Z,1015.56
2018-09-28T04:12:23.124Z,1015.53
2018-09-28T04:13:23.097Z,1015.53
2018-09-28T04:14:23.081Z,1015.54
2018-09-28T04:15:23.083Z,1015.57
2018-09-28T04:16:23.058Z,1015.56
2018-09-28T04:17:23.080Z,1015.59
2018-09-28T04:18:23.039Z,1015.60
2018-09-28T04:19:23.035Z,1015.60
2018-09-28T04:20:23.024Z,1015.64
2018-09-28T04:21:23.025Z,1015.65
2018-09-28T04:22:23.029Z,1015.64
2018-09-28T04:23:22.986Z,1015.63
2018-09-28T04:24:22.980Z,1015.66
2018-09-28T04:25:22.963Z,1015.67
2018-09-28T04:26:22.961Z,1015.67
2018-09-28T04:27:22.974Z,1015.68
2018-09-28T04:28:22.935Z,1015.69
2018-09-28T04:29:22.929Z,1015.69
2018-09-28T04:30:22.906Z,1015.70
2018-09-28T04:31:22.898Z,1015.72
2018-09-28T04:32:22.915Z,1015.78
2018-09-28T04:33:22.876Z,1015.78
2018-09-28T04:34:22.864Z,1015.77
2018-09-28T04:35:22.886Z,1015.77
2018-09-28T04:36:22.847Z,1015.77
2018-09-28T04:37:22.833Z,1015.80
2018-09-28T04:38:22.853Z,1015.79
2018-09-28T04:39:22.817Z,1015.77
2018-09-28T04:40:22.800Z,1015.74
2018-09-28T04:41:22.795Z,1015.81
2018-09-28T04:42:22.791Z,1015.81
2018-09-28T04:43:22.801Z,1015.80
2018-09-28T04:44:22.776Z,1015.74
2018-09-28T04:45:22.810Z,1015.72
2018-09-28T04:46:22.749Z,1015.73
2018-09-28T04:47:22.726Z,1015.75
2018-09-28T04:48:22.741Z,1015.76
2018-09-28T04:49:22.729Z,1015.78
2018-09-28T04:50:22.694Z,1015.80
2018-09-28T04:51:22.687Z,1015.80
2018-09-28T04:52:22.672Z,1015.76
2018-09-28T04:53:22.695Z,1015.79
2018-09-28T04:54:22.682Z,1015.84
2018-09-28T04:55:22.645Z,1015.85
2018-09-28T04:56:22.629Z,1015.88
2018-09-28T04:57:22.632Z,1015.88
2018-09-28T04:58:22.618Z,1015.86
2018-09-28T04:59:22.631Z,1015.82
2018-09-28T05:00:22.602Z,1015.89
2018-09-28T05:01:22.611Z,1015.89
2018-09-28T05:02:22.565Z,1015.90
2018-09-28T05:03:22.557Z,1015.91
2018-09-28T05:04:22.564Z,1015.84
2018-09-28T05:05:22.583Z,1015.90
2018-09-28T05:06:22.524Z,1015.88
2018-09-28T05:07:22.512Z,1015.92
2018-09-28T05:08:22.508Z,1015.96
2018-09-28T05:09:22.548Z,1015.97
2018-09-28T05:10:22.502Z,1015.94
2018-09-28T05:11:22.469Z,1015.96
2018-09-28T05:12:22.475Z,1015.97
2018-09-28T05:13:22.446Z,1016.06
2018-09-28T05:14:22.471Z,1016.06
2018-09-28T05:15:22.456Z,1016.03
2018-09-28T05:16:22.414Z,1016.04
2018-09-28T05:17:22.410Z,1016.03
2018-09-28T05:18:22.392Z,1016.06
2018-09-28T05:19:22.387Z,1016.09
2018-09-28T05:20:22.405Z,1016.06
2018-09-28T05:21:22.359Z,1016.09
2018-09-28T05:22:22.360Z,1016.06
2018-09-28T05:23:22.360Z,1016.09
2018-09-28T05:24:22.330Z,1016.04
2018-09-28T05:25:22.387Z,1016.08
2018-09-28T05:26:22.376Z,1016.01
2018-09-28T05:27:22.295Z,1016.01
2018-09-28T05:28:22.287Z,1016.04
2018-09-28T05:29:22.273Z,1016.10
2018-09-28T05:30:22.268Z,1016.18
2018-09-28T05:31:22.495Z,1016.20
2018-09-28T05:32:22.474Z,1016.16
2018-09-28T05:33:22.231Z,1016.20
2018-09-28T05:34:22.221Z,1016.27
2018-09-28T05:35:22.209Z,1016.25
2018-09-28T05:36:22.234Z,1016.23
2018-09-28T05:37:22.242Z,1016.29
2018-09-28T05:38:22.183Z,1016.33
2018-09-28T05:39:22.189Z,1016.41
2018-09-28T05:40:22.156Z,1016.38
2018-09-28T05:41:22.147Z,1016.40
2018-09-28T05:42:22.161Z,1016.44
2018-09-28T05:43:22.130Z,1016.41
2018-09-28T05:44:22.113Z,1016.42
2018-09-28T05:45:22.113Z,1016.44
2018-09-28T05:46:22.126Z,1016.45
2018-09-28T05:47:22.103Z,1016.45
2018-09-28T05:48:22.070Z,1016.47
2018-09-28T05:49:22.059Z,1016.47
2018-09-28T05:50:22.051Z,1016.40
2018-09-28T05:51:22.075Z,1016.46
2018-09-28T05:52:22.068Z,1016.49
2018-09-28T05:53:22.023Z,1016.46
2018-09-28T05:54:22.008Z,1016.47
2018-09-28T05:55:22.015Z,1016.48
2018-09-28T05:56:21.985Z,1016.47
2018-09-28T05:57:22.002Z,1016.48
2018-09-28T05:58:22.024Z,1016.51
2018-09-28T05:59:21.977Z,1016.52
2018-09-28T06:00:21.950Z,1016.50
2018-09-28T06:01:21.953Z,1016.54
2018-09-28T06:02:21.921Z,1016.52
2018-09-28T06:03:21.930Z,1016.51
2018-09-28T06:04:21.948Z,1016.51
2018-09-28T06:05:21.905Z,1016.49
2018-09-28T06:06:21.881Z,1016.52
2018-09-28T06:07:21.936Z,1016.51
2018-09-28T06:08:21.879Z,1016.52
2018-09-28T06:09:21.848Z,1016.53
2018-09-28T06:10:21.845Z,1016.51
2018-09-28T06:11:21.834Z,1016.52
2018-09-28T06:12:21.815Z,1016.52
2018-09-28T06:13:21.854Z,1016.57
2018-09-28T06:14:21.812Z,1016.57
2018-09-28T06:15:21.797Z,1016.61
2018-09-28T06:16:21.775Z,1016.62
2018-09-28T06:17:21.768Z,1016.57
2018-09-28T06:18:21.766Z,1016.60
2018-09-28T06:19:21.793Z,1016.57
2018-09-28T06:20:21.763Z,1016.64
2018-09-28T06:21:21.720Z,1016.60
2018-09-28T06:22:21.708Z,1016.62
2018-09-28T06:23:21.711Z,1016.55
2018-09-28T06:24:21.708Z,1016.54
2018-09-28T06:25:21.673Z,1016.52
2018-09-28T06:26:21.661Z,1016.63
2018-09-28T06:27:21.652Z,1016.58
2018-09-28T06:28:21.646Z,1016.60
2018-09-28T06:29:21.673Z,1016.60
2018-09-28T06:30:21.628Z,1016.61
2018-09-28T06:31:21.636Z,1016.65
2018-09-28T06:32:21.596Z,1016.62
2018-09-28T06:33:21.608Z,1016.63
2018-09-28T06:34:21.597Z,1016.62
2018-09-28T06:35:21.573Z,1016.60
2018-09-28T06:36:21.679Z,1016.61
2018-09-28T06:37:21.548Z,1016.66
2018-09-28T06:38:21.532Z,1016.64
2018-09-28T06:39:21.595Z,1016.66
2018-09-28T06:40:21.507Z,1016.66
2018-09-28T06:41:21.516Z,1016.69
2018-09-28T06:42:21.509Z,1016.74
2018-09-28T06:43:21.478Z,1016.71
2018-09-28T06:44:21.543Z,1016.73
2018-09-28T06:45:21.488Z,1016.69
2018-09-28T06:46:21.444Z,1016.63
2018-09-28T06:47:21.464Z,1016.65
2018-09-28T06:48:21.444Z,1016.71
2018-09-28T06:49:21.415Z,1016.75
2018-09-28T06:50:21.426Z,1016.79
2018-09-28T06:51:21.459Z,1016.80
2018-09-28T06:52:21.385Z,1016.84
2018-09-28T06:53:21.374Z,1016.84
2018-09-28T06:54:21.369Z,1016.86
2018-09-28T06:55:21.376Z,1016.90
2018-09-28T06:56:21.341Z,1016.90
2018-09-28T06:57:21.330Z,1016.93
2018-09-28T06:58:21.416Z,1016.91
2018-09-28T06:59:21.301Z,1016.95
2018-09-28T07:00:21.393Z,1016.96
2018-09-28T07:01:21.282Z,1017.03
2018-09-28T07:02:21.308Z,1017.06
2018-09-28T07:03:21.260Z,1017.07
2018-09-28T07:04:21.250Z,1017.07
2018-09-28T07:05:21.247Z,1017.12
2018-09-28T07:06:21.361Z,1017.17
2018-09-28T07:07:21.217Z,1017.13
2018-09-28T07:08:21.214Z,1017.07
2018-09-28T07:09:21.225Z,1017.09
2018-09-28T07:10:21.180Z,1017.16
2018-09-28T07:11:21.204Z,1017.24
2018-09-28T07:12:21.191Z,1017.18
2018-09-28T07:13:21.233Z,1017.20
2018-09-28T07:14:21.140Z,1017.20
2018-09-28T07:15:21.155Z,1017.22
2018-09-28T07:16:21.220Z,1017.14
2018-09-28T07:17:21.118Z,1017.14
2018-09-28T07:18:21.169Z,1017.17
2018-09-28T07:19:21.092Z,1017.14
2018-09-28T07:20:21.084Z,1017.14
2018-09-28T07:21:21.065Z,1017.15
2018-09-28T07:22:21.082Z,1017.14
2018-09-28T07:23:21.042Z,1017.20
2018-09-28T07:24:21.069Z,1017.19
2018-09-28T07:25:21.033Z,1017.22
2018-09-28T07:26:21.007Z,1017.24
2018-09-28T07:27:21.035Z,1017.21
2018-09-28T07:28:20.990Z,1017.21
2018-09-28T07:29:20.976Z,1017.13
2018-09-28T07:30:21.020Z,1017.21
2018-09-28T07:31:20.958Z,1017.24
2018-09-28T07:32:20.971Z,1017.27
2018-09-28T07:33:20.940Z,1017.29
2018-09-28T07:34:20.928Z,1017.25
2018-09-28T07:35:20.938Z,1017.27
2018-09-28T07:36:21.003Z,1017.23
2018-09-28T07:37:20.908Z,1017.24
2018-09-28T07:38:20.905Z,1017.30
2018-09-28T07:39:20.866Z,1017.27
2018-09-28T07:40:20.866Z,1017.26
2018-09-28T07:41:20.870Z,1017.27
2018-09-28T07:42:20.861Z,1017.29
2018-09-28T07:43:20.852Z,1017.30
2018-09-28T07:44:20.844Z,1017.31
2018-09-28T07:45:20.802Z,1017.29
2018-09-28T07:46:20.793Z,1017.31
2018-09-28T07:47:20.783Z,1017.26
2018-09-28T07:48:20.834Z,1017.30
2018-09-28T07:49:20.766Z,1017.31
2018-09-28T07:50:20.750Z,1017.38
2018-09-28T07:51:20.736Z,1017.39
2018-09-28T07:52:20.726Z,1017.33
2018-09-28T07:53:20.760Z,1017.38
2018-09-28T07:54:20.708Z,1017.41
2018-09-28T07:55:20.738Z,1017.39
2018-09-28T07:56:20.682Z,1017.44
2018-09-28T07:57:20.694Z,1017.39
2018-09-28T07:58:20.705Z,1017.44
2018-09-28T07:59:20.649Z,1017.47
2018-09-28T08:00:20.639Z,1017.43
2018-09-28T08:01:20.629Z,1017.49
2018-09-28T08:02:20.615Z,1017.53
2018-09-28T08:03:20.734Z,1017.54
2018-09-28T08:04:20.648Z,1017.53
2018-09-28T08:05:20.587Z,1017.46
2018-09-28T08:06:20.579Z,1017.51
2018-09-28T08:07:20.587Z,1017.53
2018-09-28T08:08:20.561Z,1017.52
2018-09-28T08:09:20.589Z,1017.56
2018-09-28T08:10:20.531Z,1017.61
2018-09-28T08:11:20.517Z,1017.68
2018-09-28T08:12:20.507Z,1017.68
2018-09-28T08:13:20.505Z,1017.68
2018-09-28T08:14:20.528Z,1017.72
2018-09-28T08:15:20.473Z,1017.70
2018-09-28T08:16:20.463Z,1017.74
2018-09-28T08:17:20.452Z,1017.71
2018-09-28T08:18:20.471Z,1017.76
2018-09-28T08:19:20.459Z,1017.73
2018-09-28T08:20:20.420Z,1017.73
2018-09-28T08:21:20.424Z,1017.71
2018-09-28T08:22:20.399Z,1017.74
2018-09-28T08:23:20.404Z,1017.76
2018-09-28T08:24:20.409Z,1017.72
2018-09-28T08:25:20.365Z,1017.76
2018-09-28T08:26:20.394Z,1017.79
2018-09-28T08:27:20.371Z,1017.79
2018-09-28T08:28:20.335Z,1017.82
2018-09-28T08:29:20.372Z,1017.85
2018-09-28T08:30:20.340Z,1017.86
2018-09-28T08:31:20.301Z,1017.86
2018-09-28T08:32:20.315Z,1017.86
2018-09-28T08:33:20.283Z,1017.85
2018-09-28T08:34:20.274Z,1017.85
2018-09-28T08:35:20.295Z,1017.87
2018-09-28T08:36:20.282Z,1017.85
2018-09-28T08:37:20.239Z,1017.89
2018-09-28T08:38:20.225Z,1017.93
2018-09-28T08:39:20.221Z,1017.94
2018-09-28T08:40:20.245Z,1017.96
2018-09-28T08:41:20.193Z,1017.96
2018-09-28T08:42:20.184Z,1017.94
2018-09-28T08:43:20.178Z,1017.98
2018-09-28T08:44:20.166Z,1017.99
2018-09-28T08:45:20.202Z,1017.96
2018-09-28T08:46:20.139Z,1017.99
2018-09-28T08:47:20.134Z,1017.98
2018-09-28T08:48:20.127Z,1018.08
2018-09-28T08:49:20.299Z,1018.03
2018-09-28T08:50:20.130Z,1018.04
2018-09-28T08:51:20.104Z,1018.00
2018-09-28T08:52:20.078Z,1018.02
2018-09-28T08:53:20.063Z,1018.01
2018-09-28T08:54:20.052Z,1018.04
2018-09-28T08:55:20.075Z,1018.01
2018-09-28T08:56:20.049Z,1018.03
2018-09-28T08:57:20.032Z,1018.05
2018-09-28T08:58:20.041Z,1018.05
2018-09-28T08:59:20.000Z,1018.04
2018-09-28T09:00:20.023Z,1018.05
2018-09-28T09:01:19.979Z,1018.07
2018-09-28T09:02:20.004Z,1018.13
2018-09-28T09:03:19.960Z,1018.17
2018-09-28T09:04:19.944Z,1018.16
2018-09-28T09:05:19.964Z,1018.18
2018-09-28T09:06:19.944Z,1018.23
2018-09-28T09:07:19.923Z,1018.23
2018-09-28T09:08:19.904Z,1018.21
2018-09-28T09:09:19.901Z,1018.18
2018-09-28T09:10:19.879Z,1018.27
2018-09-28T09:11:19.893Z,1018.26
2018-09-28T09:12:19.893Z,1018.26
2018-09-28T09:13:19.853Z,1018.23
2018-09-28T09:14:19.840Z,1018.26
2018-09-28T09:15:19.834Z,1018.24
2018-09-28T09:16:19.875Z,1018.26
2018-09-28T09:17:19.816Z,1018.24
2018-09-28T09:18:19.853Z,1018.28
2018-09-28T09:19:19.795Z,1018.25
2018-09-28T09:20:19.771Z,1018.28
2018-09-28T09:21:19.792Z,1018.29
2018-09-28T09:22:19.760Z,1018.27
2018-09-28T09:23:19.740Z,1018.33
2018-09-28T09:24:19.731Z,1018.35
2018-09-28T09:25:19.718Z,1018.38
2018-09-28T09:26:19.711Z,1018.44
2018-09-28T09:27:19.727Z,1018.43
2018-09-28T09:28:19.689Z,1018.42
2018-09-28T09:29:19.675Z,1018.48
2018-09-28T09:30:19.673Z,1018.47
2018-09-28T09:31:19.820Z,1018.48
2018-09-28T09:32:19.724Z,1018.51
2018-09-28T09:33:19.636Z,1018.52
2018-09-28T09:34:19.628Z,1018.58
2018-09-28T09:35:19.628Z,1018.59
2018-09-28T09:36:19.639Z,1018.62
2018-09-28T09:37:19.618Z,1018.64
2018-09-28T09:38:19.607Z,1018.66
2018-09-28T09:39:19.589Z,1018.63
2018-09-28T09:40:19.568Z,1018.63
2018-09-28T09:41:19.546Z,1018.67
2018-09-28T09:42:19.562Z,1018.67
2018-09-28T09:43:19.540Z,1018.66
2018-09-28T09:44:19.514Z,1018.66
2018-09-28T09:45:19.511Z,1018.68
2018-09-28T09:46:19.490Z,1018.69
2018-09-28T09:47:19.505Z,1018.66
2018-09-28T09:48:19.513Z,1018.66
2018-09-28T09:49:19.497Z,1018.64
2018-09-28T09:50:19.449Z,1018.64
2018-09-28T09:51:19.436Z,1018.65
2018-09-28T09:52:19.462Z,1018.65
2018-09-28T09:53:19.414Z,1018.67
2018-09-28T09:54:19.423Z,1018.68
2018-09-28T09:55:19.434Z,1018.68
2018-09-28T09:56:19.384Z,1018.68
2018-09-28T09:57:19.409Z,1018.65
2018-09-28T09:58:19.359Z,1018.59
2018-09-28T09:59:19.358Z,1018.59
2018-09-28T10:00:19.358Z,1018.65
2018-09-28T10:01:19.334Z,1018.67
2018-09-28T10:02:19.316Z,1018.68
2018-09-28T10:03:19.330Z,1018.71
2018-09-28T10:04:19.325Z,1018.72
2018-09-28T10:05:19.284Z,1018.80
2018-09-28T10:06:19.338Z,1018.81
2018-09-28T10:07:19.304Z,1018.77
2018-09-28T10:08:19.286Z,1018.78
2018-09-28T10:09:19.245Z,1018.76
2018-09-28T10:10:19.251Z,1018.77
2018-09-28T10:11:19.226Z,1018.76
2018-09-28T10:12:19.234Z,1018.80
2018-09-28T10:13:19.234Z,1018.83
2018-09-28T10:14:19.246Z,1018.82
2018-09-28T10:15:19.185Z,1018.85
2018-09-28T10:16:19.166Z,1018.82
2018-09-28T10:17:19.152Z,1018.80
2018-09-28T10:18:19.141Z,1018.80
2018-09-28T10:19:19.164Z,1018.81
2018-09-28T10:20:19.287Z,1018.77
2018-09-28T10:21:19.149Z,1018.77
2018-09-28T10:22:19.173Z,1018.78
2018-09-28T10:23:19.092Z,1018.77
2018-09-28T10:24:19.103Z,1018.76
2018-09-28T10:25:19.066Z,1018.82
2018-09-28T10:26:19.062Z,1018.83
2018-09-28T10:27:19.085Z,1018.80
2018-09-28T10:28:19.133Z,1018.81
2018-09-28T10:29:19.048Z,1018.77
2018-09-28T10:30:19.010Z,1018.76
2018-09-28T10:31:19.009Z,1018.84
2018-09-28T10:32:19.003Z,1018.84
2018-09-28T10:33:18.978Z,1018.85
2018-09-28T10:34:19.192Z,1018.89
2018-09-28T10:35:18.956Z,1018.87
2018-09-28T10:36:18.949Z,1018.82
2018-09-28T10:37:18.932Z,1018.84
2018-09-28T10:38:18.922Z,1018.85
2018-09-28T10:39:18.988Z,1018.78
2018-09-28T10:40:19.064Z,1018.85
2018-09-28T10:41:20.517Z,1018.83
2018-09-28T10:42:18.898Z,1018.77
2018-09-28T10:43:18.871Z,1018.74
2018-09-28T10:44:18.858Z,1018.74
2018-09-28T10:45:18.893Z,1018.75
2018-09-28T10:46:18.846Z,1018.74
2018-09-28T10:47:18.840Z,1018.71
2018-09-28T10:48:18.823Z,1018.71
2018-09-28T10:49:18.807Z,1018.70
2018-09-28T10:50:18.793Z,1018.70
2018-09-28T10:51:18.889Z,1018.72
2018-09-28T10:52:19.089Z,1018.71
2018-09-28T10:53:18.763Z,1018.77
2018-09-28T10:54:18.761Z,1018.73
2018-09-28T10:55:18.803Z,1018.75
2018-09-28T10:56:18.736Z,1018.78
2018-09-28T10:57:18.740Z,1018.78
2018-09-28T10:58:18.778Z,1018.76
2018-09-28T10:59:18.694Z,1018.78
2018-09-28T11:00:18.742Z,1018.79
2018-09-28T11:01:18.672Z,1018.78
2018-09-28T11:02:18.674Z,1018.91
2018-09-28T11:03:18.676Z,1018.95
2018-09-28T11:04:18.714Z,1018.95
2018-09-28T11:05:18.629Z,1018.96
2018-09-28T11:06:18.690Z,1018.96
2018-09-28T11:07:18.608Z,1018.99
2018-09-28T11:08:18.648Z,1018.97
2018-09-28T11:09:18.607Z,1018.94
2018-09-28T11:10:18.605Z,1018.95
2018-09-28T11:11:18.584Z,1018.96
2018-09-28T11:12:18.551Z,1019.02
2018-09-28T11:13:18.545Z,1019.02
2018-09-28T11:14:18.528Z,1018.97
2018-09-28T11:15:18.531Z,1018.92
2018-09-28T11:16:18.531Z,1018.90
2018-09-28T11:17:18.496Z,1018.97
2018-09-28T11:18:18.485Z,1018.95
2018-09-28T11:19:18.474Z,1018.90
2018-09-28T11:20:18.467Z,1018.90
2018-09-28T11:21:18.515Z,1018.86
2018-09-28T11:22:18.442Z,1018.88
2018-09-28T11:23:18.430Z,1018.87
2018-09-28T11:24:18.419Z,1018.93
2018-09-28T11:25:18.407Z,1018.90
2018-09-28T11:26:18.458Z,1018.85
2018-09-28T11:27:18.494Z,1018.86
2018-09-28T11:28:18.375Z,1018.84
2018-09-28T11:29:18.369Z,1018.84
2018-09-28T11:30:18.356Z,1018.81
2018-09-28T11:31:18.375Z,1018.80
2018-09-28T11:32:18.342Z,1018.76
2018-09-28T11:33:18.395Z,1018.75
2018-09-28T11:34:18.316Z,1018.76
2018-09-28T11:35:18.319Z,1018.78
2018-09-28T11:36:18.287Z,1018.75
2018-09-28T11:37:18.298Z,1018.80
2018-09-28T11:38:18.339Z,1018.79
2018-09-28T11:39:18.346Z,1018.75
2018-09-28T11:40:18.243Z,1018.76
2018-09-28T11:41:18.240Z,1018.74
2018-09-28T11:42:18.246Z,1018.79
2018-09-28T11:43:18.325Z,1018.79
2018-09-28T11:44:18.259Z,1018.79
2018-09-28T11:45:18.279Z,1018.81
2018-09-28T11:46:18.183Z,1018.80
2018-09-28T11:47:18.194Z,1018.82
2018-09-28T11:48:18.186Z,1018.86
2018-09-28T11:49:18.215Z,1018.85
2018-09-28T11:50:18.206Z,1018.87
2018-09-28T11:51:18.178Z,1018.87
2018-09-28T11:52:18.142Z,1018.90
2018-09-28T11:53:18.102Z,1018.89
2018-09-28T11:54:18.093Z,1018.87
2018-09-28T11:55:18.108Z,1018.91
2018-09-28T11:56:18.149Z,1018.89
2018-09-28T11:57:18.123Z,1018.90
2018-09-28T11:58:18.076Z,1018.87
2018-09-28T11:59:18.047Z,1018.90
2018-09-28T12:00:18.076Z,1018.92
2018-09-28T12:01:18.020Z,1018.90
2018-09-28T12:02:18.016Z,1018.91
2018-09-28T12:03:18.149Z,1018.93
2018-09-28T12:04:17.994Z,1018.95
2018-09-28T12:05:17.975Z,1018.94